Flight Track Log - Related Links

Times and Time Zones

All times are in EDT time to prevent confusion due to time zone crossing. See the N311GM flight status page for this flight to view local times or setup timezone preferences in your user account.

Time Position Orientation Groundspeed Altitude Reporting Facility
EDT Latitude Longitude Course Direction KTS MPH feet Rate Location/Type
Thu 06:12:34 PM 29.5658 -90.6303 91° East 128 147 3,700  Level Houston Center
Thu 06:13:06 PM 29.5856 -90.6233 17° North 144 166 5,100 2,323 Climbing Houston Center
Thu 06:13:36 PM 29.6047 -90.6181 13° North 141 162 6,100 2,217 Climbing Houston Center
Thu 06:14:38 PM 29.6469 -90.6119 North 145 167 8,500 2,371 Climbing Houston Center
Thu 06:15:40 PM 29.6908 -90.6025 11° North 153 176 11,000 2,160 Climbing Houston Center
Thu 06:16:43 PM 29.7328 -90.5919 12° North 154 177 13,000 1,824 Climbing Houston Center
Thu 06:17:45 PM 29.7931 -90.5781 11° North 188 216 14,800 1,790 Climbing Houston Center
Thu 06:18:47 PM 29.8464 -90.5669 10° North 194 223 16,700 1,645 Climbing Houston Center
Thu 06:19:49 PM 29.9006 -90.5564 10° North 198 228 18,200 1,452 Climbing Houston Center
Thu 06:20:51 PM 29.9556 -90.5450 10° North 201 231 19,700 1,355 Climbing Houston Center
Thu 06:21:53 PM 30.0111 -90.5331 11° North 203 234 21,000 1,210 Climbing Houston Center
Thu 06:22:55 PM 30.0678 -90.5211 10° North 205 236 22,200 1,258 Climbing Houston Center
Thu 06:23:57 PM 30.1392 -90.5067 10° North 216 249 23,600 1,210 Climbing Houston Center
Thu 06:24:59 PM 30.1983 -90.4944 10° North 217 250 24,700 960 Climbing Houston Center
Thu 06:26:02 PM 30.2572 -90.4819 10° North 215 247 25,600 960 Climbing Houston Center
Thu 06:27:04 PM 30.3122 -90.4567 22° Northeast 213 245 26,700 968 Climbing Houston Center
Thu 06:28:06 PM 30.3661 -90.4297 23° Northeast 211 243 27,600 871 Climbing Houston Center
Thu 06:29:08 PM 30.4200 -90.4056 21° North 209 241 28,500 677 Climbing Houston Center
Thu 06:30:10 PM 30.4747 -90.3781 23° Northeast 212 244 29,000 242 Climbing Houston Center
Thu 06:31:12 PM 30.5489 -90.3381 25° Northeast 242 278 29,000  Level Houston Center
Thu 06:32:14 PM 30.6158 -90.3025 25° Northeast 259 298 29,000  Level Houston Center
Thu 06:33:16 PM 30.6822 -90.2669 25° Northeast 263 303 29,000  Level Houston Center
Thu 06:34:18 PM 30.7511 -90.2319 24° Northeast 267 307 29,000  Level Houston Center
Thu 06:35:20 PM 30.8178 -90.1953 25° Northeast 266 306 29,000  Level Houston Center
Thu 06:36:23 PM 30.8847 -90.1589 25° Northeast 265 305 29,000  Level Houston Center
Thu 06:37:25 PM 30.9658 -90.1150 25° Northeast 267 307 29,000  Level Houston Center
Thu 06:38:27 PM 31.0331 -90.0789 25° Northeast 266 306 29,000  Level Houston Center
Thu 06:39:29 PM 31.1006 -90.0431 24° Northeast 265 305 29,000  Level Houston Center
Thu 06:40:31 PM 31.1669 -90.0072 25° Northeast 265 305 29,000  Level Houston Center
Thu 06:41:33 PM 31.2347 -89.9703 25° Northeast 266 306 29,000  Level Houston Center
Thu 06:42:35 PM 31.3014 -89.9344 25° Northeast 265 305 29,000  Level Houston Center
Thu 06:43:37 PM 31.3808 -89.8908 25° Northeast 263 303 29,000  Level Houston Center
Thu 06:44:39 PM 31.4475 -89.8544 25° Northeast 264 304 29,000  Level Houston Center
Thu 06:45:41 PM 31.5139 -89.8186 25° Northeast 263 303 29,000  Level Houston Center
Thu 06:46:43 PM 31.5811 -89.7819 25° Northeast 265 305 29,000  Level Houston Center
Thu 06:47:46 PM 31.6481 -89.7458 25° Northeast 266 306 29,000 -336 Level Houston Center
Thu 06:48:48 PM 31.7169 -89.7078 25° Northeast 272 313 28,300 -726 Descending Houston Center
Thu 06:49:50 PM 31.8044 -89.6586 26° Northeast 288 331 27,500 -1,210 Descending Houston Center
Thu 06:50:52 PM 31.8694 -89.6231 25° Northeast 293 337 25,800 750 Descending Houston Center
Thu 06:51:50 PM 31.9556 -89.5764 25° Northeast 284 327 29,000 1,627 Climbing Memphis Center
Thu 06:52:50 PM 32.0283 -89.5364 25° Northeast 289 333 29,000  Level Memphis Center
Thu 06:53:50 PM 32.0947 -89.5017 24° Northeast 289 333 29,000  Level Memphis Center
Thu 06:54:50 PM 32.1678 -89.4639 24° Northeast 289 333 29,000  Level Memphis Center
Thu 06:55:50 PM 32.2342 -89.4314 22° Northeast 270 311 29,000  Level Memphis Center
Thu 06:56:50 PM 32.2967 -89.3964 25° Northeast 257 296 29,000  Level Memphis Center
Thu 06:57:50 PM 32.3569 -89.3614 26° Northeast 244 281 29,000  Level Memphis Center
Thu 06:58:50 PM 32.4192 -89.3211 29° Northeast 239 275 29,000  Level Memphis Center
Thu 06:59:50 PM 32.4814 -89.2886 24° Northeast 239 275 29,000  Level Memphis Center
Thu 07:00:50 PM 32.5417 -89.2558 25° Northeast 239 275 29,000  Level Memphis Center
Thu 07:01:50 PM 32.6042 -89.2203 26° Northeast 239 275 29,000  Level Memphis Center
Thu 07:02:50 PM 32.6622 -89.1875 25° Northeast 239 275 29,000  Level Memphis Center
Thu 07:04:00 PM 32.7359 -89.1686 23° Northeast  Level Estimated
Thu 07:11:00 PM 33.1333 -89.0500 29° Northeast  Level FlightAware Approximate
Thu 07:12:00 PM 33.1462 -89.0625 29° Northeast  Level Estimated
Thu 07:13:00 PM 33.1462 -89.0625 29° Northeast  Level Estimated
Thu 07:14:00 PM 33.1462 -89.0625 29° Northeast  Level Estimated
Thu 07:15:00 PM 33.1462 -89.0625 29° Northeast  Level Estimated
Thu 07:16:00 PM 33.1462 -89.0625 29° Northeast  Level Estimated
Thu 07:17:00 PM 33.1462 -89.0625 29° Northeast  Level Estimated
Thu 07:18:00 PM 33.1462 -89.0625 29° Northeast  Level Estimated
Thu 07:19:00 PM 33.1462 -89.0625 29° Northeast  Level Estimated
Thu 07:20:00 PM 33.1462 -89.0625 29° Northeast  Level Estimated
Thu 07:21:00 PM 33.1462 -89.0625 29° Northeast  Level Estimated
Thu 07:22:00 PM 33.1462 -89.0625 29° Northeast  Level Estimated
Thu 07:23:00 PM 33.1462 -89.0625 29° Northeast  Level Estimated
Thu 07:24:00 PM 33.1462 -89.0625 29° Northeast  Level Estimated
Thu 07:25:00 PM 33.1462 -89.0625 29° Northeast  Level Estimated
Thu 07:26:00 PM 33.1462 -89.0625 29° Northeast  Level Estimated

Login

Don't have an account? Register now (free) for customized features, flight alerts, and more!